Lawrenceville, IL (62439)

6:01 PM CST on February 07, 2016 (GMT -0600)
McClure Farms | | Change Station
CLOSE
Current Station
Personal Weather Station
Location: Saint Francisville, IL
Elevation: 430 ft
Nearby Weather Stations

Elev 430 ft 38.65 °N, 87.66 °W | Updated 5 seconds ago

Overcast
Overcast
51.3 °F
Feels Like 51.3 °F
N
0.4
Wind Variable Wind from West
Gusts 2.5 mph

Today
High -- | Low -- °F
--% Chance of Precip.
Yesterday
High -- | Low -- °F
Precip. -- in
Pressure 29.85 in
Visibility 10.0 miles
Clouds Scattered Clouds 7500 ft
Mostly Cloudy 9000 ft
Overcast 12000 ft
Dew Point 30 °F
Humidity 43%
Rainfall 0.00 in
Snow Depth Not available.
6:51 AM 5:19 PM
Waning Crescent, 1% visible
METAR KAJG 072355Z AUTO 23009KT 10SM SCT075 BKN090 OVC120 10/M01 A2985 RMK AO2
Pressure 29.85 in
Visibility 10.0 miles
Clouds Scattered Clouds 7500 ft
Mostly Cloudy 9000 ft
Overcast 12000 ft
Dew Point 30 °F
Humidity 43%
Rainfall 0.00 in
Snow Depth Not available.
6:51 AM 5:19 PM
Waning Crescent, 1% visible
METAR KAJG 072355Z AUTO 23009KT 10SM SCT075 BKN090 OVC120 10/M01 A2985 RMK AO2

10-Day Weather Forecast

Almanac

Astronomy

Feb. 07, 2016 Rise Set
Actual Time
Civil Twilight
Nautical Twilight
Astronomical Twilight
Moon
Length of Visible Light
Length of Day
Tomorrow will be .
, % of the Moon is Illuminated

Today's Extremes

State Highs State Lows

Community

WunderPhotos

Upload Photos

1,891,334 photos uploaded!

WunderBlog® & News

Nearby

Air Quality

  Air Quality AQ Index Pollutant
Not available.

Snow Depth

Station Depth Elevation

Earthquake Activity

City Distance Mag. Time & Date
Minimum magnitude displayed is 2.5.

Coastal Water Temperatures

Place Temperature

Stations

Nearby Weather Stations

Station Location Temp. Windchill Dew Point Humidity Wind Precip. Elev Updated Type
                   

Watches & Warnings

There are currently no watches in effect.